Time;durP1;ratioP1;P1;durP2;ratioP2;P2;SDS_P1;SDS_P2;PMS_P1;PMS_P2;Temp;Humidity;BMP_temperature;BMP_pressure;BME280_temperature;BME280_humidity;BME280_pressure;Samples;Min_cycle;Max_cycle;Signal;HPM_P1;HPM_P2
2023/12/06 00:00:40;;;;;;;3.10;2.90;;;4.90;99.90;;;;;;4972216;28;20117;-48
2023/12/06 00:03:05;;;;;;;3.42;3.22;;;5.00;99.90;;;;;;4971953;28;20019;-48
2023/12/06 00:05:31;;;;;;;3.28;2.97;;;4.90;99.90;;;;;;4972195;28;20088;-48
2023/12/06 00:07:57;;;;;;;4.28;3.25;;;4.90;99.90;;;;;;4972233;28;20397;-50
2023/12/06 00:10:22;;;;;;;7.20;3.88;;;4.90;99.90;;;;;;4972121;28;20062;-49
2023/12/06 00:12:48;;;;;;;4.95;3.47;;;4.80;99.90;;;;;;4971867;28;20035;-50
2023/12/06 00:15:15;;;;;;;4.57;3.30;;;4.80;99.90;;;;;;4972008;28;20027;-52
2023/12/06 00:17:40;;;;;;;4.43;2.88;;;4.90;99.90;;;;;;4971860;28;20023;-49
2023/12/06 00:20:06;;;;;;;3.40;3.10;;;4.90;99.90;;;;;;4971817;28;20035;-50
2023/12/06 00:22:32;;;;;;;3.45;3.15;;;4.90;99.90;;;;;;4971558;28;20027;-49
2023/12/06 00:24:57;;;;;;;4.35;3.67;;;5.00;99.90;;;;;;4971637;28;20031;-48
2023/12/06 00:27:23;;;;;;;3.85;3.30;;;4.90;99.90;;;;;;4971458;28;20046;-50
2023/12/06 00:29:48;;;;;;;3.60;3.30;;;4.90;99.90;;;;;;4971650;28;20027;-49
2023/12/06 00:32:14;;;;;;;3.22;3.00;;;4.90;99.90;;;;;;4971685;28;20442;-53
2023/12/06 00:34:39;;;;;;;3.25;3.03;;;4.90;99.90;;;;;;4971395;28;20065;-49
2023/12/06 00:37:05;;;;;;;19.63;12.52;;;4.90;99.90;;;;;;4954060;28;20027;-51
2023/12/06 00:39:31;;;;;;;5.45;4.22;;;4.90;99.90;;;;;;4954182;28;20573;-49
2023/12/06 00:41:56;;;;;;;10.75;6.53;;;4.90;99.90;;;;;;4971262;28;20026;-53
2023/12/06 00:44:22;;;;;;;3.33;3.03;;;4.90;99.90;;;;;;4954207;28;20049;-51
2023/12/06 00:46:47;;;;;;;3.72;3.03;;;5.00;99.90;;;;;;4971356;28;20031;-52
2023/12/06 00:49:13;;;;;;;3.47;3.15;;;5.00;99.90;;;;;;4971308;28;20482;-52
2023/12/06 00:51:39;;;;;;;3.53;3.22;;;5.10;99.90;;;;;;4971295;28;20106;-48
2023/12/06 00:54:05;;;;;;;2.95;2.75;;;5.10;99.90;;;;;;4971317;28;20490;-51
2023/12/06 00:56:30;;;;;;;3.83;2.95;;;5.20;99.90;;;;;;4971220;28;20052;-52
2023/12/06 00:58:56;;;;;;;3.20;2.90;;;5.20;99.90;;;;;;4970500;28;20031;-52
2023/12/06 01:01:22;;;;;;;2.88;2.67;;;5.20;99.90;;;;;;4953498;28;20031;-50
2023/12/06 01:03:47;;;;;;;5.35;3.58;;;5.20;99.90;;;;;;4953710;28;20431;-51
2023/12/06 01:06:13;;;;;;;6.07;4.50;;;5.10;99.90;;;;;;4953717;28;20034;-53
2023/12/06 01:08:38;;;;;;;3.95;3.42;;;5.10;99.90;;;;;;4971185;28;20561;-49
2023/12/06 01:11:04;;;;;;;4.97;3.30;;;5.10;99.90;;;;;;4970773;28;20073;-47
2023/12/06 01:13:29;;;;;;;3.10;2.80;;;5.10;99.90;;;;;;4971106;28;20030;-55
2023/12/06 01:15:55;;;;;;;3.70;3.10;;;5.20;99.90;;;;;;4970734;28;20120;-51
2023/12/06 01:18:21;;;;;;;3.33;3.10;;;5.20;99.90;;;;;;4970833;28;20085;-48
2023/12/06 01:20:46;;;;;;;3.13;2.67;;;5.20;99.90;;;;;;4970692;28;20035;-52
2023/12/06 01:23:12;;;;;;;3.53;2.60;;;5.10;99.90;;;;;;4970848;28;20027;-52
2023/12/06 01:25:37;;;;;;;2.92;2.72;;;5.10;99.90;;;;;;4970702;28;20106;-49
2023/12/06 01:28:03;;;;;;;5.47;2.97;;;5.10;99.90;;;;;;4970857;28;20101;-48
2023/12/06 01:30:28;;;;;;;3.20;3.00;;;5.20;99.90;;;;;;4970650;28;20030;-48
2023/12/06 01:32:54;;;;;;;3.00;2.80;;;5.10;99.90;;;;;;4970479;28;20102;-47
2023/12/06 01:35:19;;;;;;;2.83;2.63;;;5.10;99.90;;;;;;4970753;28;20026;-48
2023/12/06 01:37:45;;;;;;;3.33;3.03;;;5.20;99.90;;;;;;4970424;28;20027;-52
2023/12/06 01:40:11;;;;;;;3.35;3.05;;;5.20;99.90;;;;;;4953285;28;20502;-48
2023/12/06 01:42:36;;;;;;;4.53;2.90;;;5.10;99.90;;;;;;4970415;28;20031;-50
2023/12/06 01:45:02;;;;;;;5.28;3.47;;;5.20;99.90;;;;;;4970584;28;20111;-50
2023/12/06 01:47:29;;;;;;;3.45;3.15;;;5.10;99.90;;;;;;4953106;28;20096;-49
2023/12/06 01:49:57;;;;;;;3.97;3.63;;;5.20;99.90;;;;;;4970884;28;20379;-54
2023/12/06 01:52:23;;;;;;;4.68;4.28;;;5.30;99.90;;;;;;4970439;28;20045;-47
2023/12/06 01:54:49;;;;;;;4.72;4.32;;;5.30;99.90;;;;;;4970435;28;20114;-49
2023/12/06 01:57:15;;;;;;;4.22;3.80;;;5.20;99.90;;;;;;4970004;28;20114;-49
2023/12/06 01:59:43;;;;;;;5.30;4.60;;;5.30;99.90;;;;;;4970464;28;20023;-48
2023/12/06 02:02:09;;;;;;;5.72;5.13;;;5.30;99.90;;;;;;4970148;28;20038;-50
2023/12/06 02:04:35;;;;;;;6.20;4.70;;;5.30;99.90;;;;;;4970332;28;20050;-50
2023/12/06 02:07:00;;;;;;;5.18;4.68;;;5.30;99.90;;;;;;4970265;28;20026;-46
2023/12/06 02:09:27;;;;;;;5.75;5.05;;;5.30;99.90;;;;;;4952799;28;20033;-50
2023/12/06 02:11:53;;;;;;;8.50;5.70;;;5.20;99.90;;;;;;4951652;28;20110;-51
2023/12/06 02:14:19;;;;;;;5.88;5.28;;;5.20;99.90;;;;;;4952697;28;20536;-53
2023/12/06 02:16:45;;;;;;;6.53;5.60;;;5.20;99.90;;;;;;4970018;28;20523;-50
2023/12/06 02:19:18;;;;;;;5.95;5.32;;;5.20;99.90;;;;;;4969879;28;20019;-45
2023/12/06 02:21:45;;;;;;;5.55;4.93;;;5.20;99.90;;;;;;4969998;28;20041;-50
2023/12/06 02:24:12;;;;;;;7.47;5.88;;;5.20;99.90;;;;;;4970604;28;20023;-49
2023/12/06 02:26:37;;;;;;;6.57;5.63;;;5.30;99.90;;;;;;4969943;28;20027;-49
2023/12/06 02:29:02;;;;;;;6.97;6.15;;;5.40;99.90;;;;;;4969861;28;20064;-50
2023/12/06 02:31:28;;;;;;;6.68;6.00;;;5.30;99.90;;;;;;4952221;28;20027;-49
2023/12/06 02:33:54;;;;;;;8.52;6.57;;;5.30;99.90;;;;;;4952651;28;20069;-49
2023/12/06 02:36:22;;;;;;;8.35;6.57;;;5.20;99.90;;;;;;4969806;28;20470;-52
2023/12/06 02:38:48;;;;;;;7.28;6.57;;;5.10;99.90;;;;;;4969869;28;20569;-49
2023/12/06 02:41:16;;;;;;;8.23;7.18;;;5.10;99.90;;;;;;4952000;28;20118;-49
2023/12/06 02:43:43;;;;;;;9.60;6.90;;;5.20;99.90;;;;;;4952443;28;20023;-50
2023/12/06 02:46:09;;;;;;;7.90;6.82;;;5.10;99.90;;;;;;4969660;28;20127;-54
2023/12/06 02:48:34;;;;;;;10.57;8.05;;;5.10;99.90;;;;;;4969660;28;20061;-51
2023/12/06 02:51:00;;;;;;;12.23;6.90;;;5.10;99.90;;;;;;4969660;28;20027;-48
2023/12/06 02:53:25;;;;;;;9.88;8.10;;;5.00;99.90;;;;;;4969566;28;20027;-52
2023/12/06 02:55:50;;;;;;;8.48;7.57;;;5.20;99.90;;;;;;4952246;28;20031;-50
2023/12/06 02:58:16;;;;;;;11.00;8.02;;;5.20;99.90;;;;;;4969105;28;20049;-51
2023/12/06 03:00:41;;;;;;;8.75;7.85;;;5.20;99.90;;;;;;4952266;28;20053;-51
2023/12/06 03:03:07;;;;;;;9.55;7.82;;;5.20;99.90;;;;;;4969222;28;20030;-52
2023/12/06 03:05:32;;;;;;;10.63;8.48;;;5.20;99.90;;;;;;4969419;28;20023;-48
2023/12/06 03:07:58;;;;;;;9.27;8.13;;;5.20;99.90;;;;;;4969732;28;20106;-50
2023/12/06 03:10:23;;;;;;;9.27;7.97;;;5.30;99.90;;;;;;4969241;28;20030;-48
2023/12/06 03:12:49;;;;;;;10.38;8.70;;;5.30;99.90;;;;;;4969215;28;20031;-50
2023/12/06 03:15:14;;;;;;;9.55;7.22;;;5.30;99.90;;;;;;4969224;28;20121;-48
2023/12/06 03:17:40;;;;;;;11.77;8.77;;;5.40;99.90;;;;;;4969180;28;20490;-55
2023/12/06 03:20:09;;;;;;;10.02;8.60;;;5.40;99.90;;;;;;4969294;28;20505;-49
2023/12/06 03:22:34;;;;;;;10.70;8.52;;;5.50;99.90;;;;;;4969922;28;20026;-50
2023/12/06 03:24:59;;;;;;;10.93;8.98;;;5.60;99.90;;;;;;4972563;28;20559;-48
2023/12/06 03:27:25;;;;;;;10.20;8.32;;;5.50;99.90;;;;;;4972313;28;20547;-50
2023/12/06 03:29:50;;;;;;;10.57;8.20;;;5.50;99.90;;;;;;4972430;28;20026;-51
2023/12/06 03:32:16;;;;;;;12.20;7.97;;;5.70;99.90;;;;;;4972128;28;20045;-50
2023/12/06 03:34:41;;;;;;;11.05;8.63;;;5.60;99.90;;;;;;4972495;28;20056;-49
2023/12/06 03:37:08;;;;;;;9.38;8.15;;;5.50;99.90;;;;;;4972326;28;20038;-49
2023/12/06 03:39:33;;;;;;;8.90;7.95;;;5.50;99.90;;;;;;4972479;28;20102;-53
2023/12/06 03:41:59;;;;;;;10.15;8.25;;;5.50;99.90;;;;;;4972243;28;20106;-52
2023/12/06 03:44:25;;;;;;;10.60;8.70;;;5.40;99.90;;;;;;4972482;28;20022;-50
2023/12/06 03:46:50;;;;;;;12.13;9.00;;;5.40;99.90;;;;;;4972811;28;20030;-48
2023/12/06 03:49:16;;;;;;;11.20;8.43;;;5.50;99.90;;;;;;4972682;28;20023;-54
2023/12/06 03:51:42;;;;;;;9.18;8.13;;;5.40;99.90;;;;;;4971944;28;20031;-52
2023/12/06 03:54:07;;;;;;;8.77;7.90;;;5.40;99.90;;;;;;4972186;28;20030;-52
2023/12/06 03:56:33;;;;;;;14.93;9.80;;;5.30;99.90;;;;;;4954840;28;20393;-53
2023/12/06 03:58:58;;;;;;;10.27;8.32;;;5.40;99.90;;;;;;4954468;28;20371;-50
2023/12/06 04:01:24;;;;;;;11.10;9.57;;;5.40;99.90;;;;;;4971719;28;20027;-51
2023/12/06 04:03:49;;;;;;;12.07;9.20;;;5.40;99.90;;;;;;4954679;28;20026;-54
2023/12/06 04:06:15;;;;;;;12.13;9.18;;;5.40;99.90;;;;;;4972113;28;20031;-47
2023/12/06 04:08:40;;;;;;;11.13;9.20;;;5.40;99.90;;;;;;4972050;28;20039;-52
2023/12/06 04:11:06;;;;;;;11.95;9.57;;;5.40;99.90;;;;;;4971497;28;20034;-53
2023/12/06 04:13:31;;;;;;;10.20;8.73;;;5.40;99.90;;;;;;4971855;28;20569;-50
2023/12/06 04:15:57;;;;;;;10.45;8.80;;;5.40;99.90;;;;;;4954755;28;20101;-50
2023/12/06 04:18:22;;;;;;;10.73;9.05;;;5.50;99.90;;;;;;4971780;28;20497;-53
2023/12/06 04:20:48;;;;;;;11.43;9.80;;;5.50;99.90;;;;;;4971313;28;20042;-48
2023/12/06 04:23:14;;;;;;;12.77;10.13;;;5.50;99.90;;;;;;4971598;28;20401;-49
2023/12/06 04:25:39;;;;;;;10.77;9.30;;;5.50;99.90;;;;;;4971615;28;20098;-50
2023/12/06 04:28:05;;;;;;;12.07;9.93;;;5.50;99.90;;;;;;4971881;28;20035;-51
2023/12/06 04:30:30;;;;;;;11.90;9.23;;;5.60;99.90;;;;;;4971700;28;20114;-51
2023/12/06 04:32:56;;;;;;;14.25;9.73;;;5.50;99.90;;;;;;4971520;28;20035;-52
2023/12/06 04:35:21;;;;;;;12.90;9.68;;;5.50;99.90;;;;;;4971107;28;20034;-50
2023/12/06 04:37:47;;;;;;;10.75;8.88;;;5.50;99.90;;;;;;4971461;28;20031;-51
2023/12/06 04:40:12;;;;;;;11.75;9.63;;;5.50;99.90;;;;;;4971570;28;20145;-49
2023/12/06 04:42:38;;;;;;;13.45;10.23;;;5.50;99.90;;;;;;4971467;28;20031;-48
2023/12/06 04:45:04;;;;;;;14.52;10.32;;;5.60;99.90;;;;;;4971759;28;20019;-51
2023/12/06 04:47:29;;;;;;;11.60;10.00;;;5.60;99.90;;;;;;4971754;28;20031;-52
2023/12/06 04:49:55;;;;;;;13.60;10.20;;;5.60;99.90;;;;;;4971847;28;20486;-48
2023/12/06 04:52:21;;;;;;;14.07;10.88;;;5.60;99.90;;;;;;4972792;28;20516;-51
2023/12/06 04:54:47;;;;;;;12.05;9.93;;;5.70;99.90;;;;;;4972625;28;20027;-51
2023/12/06 04:57:14;;;;;;;14.02;10.80;;;5.60;99.90;;;;;;4954282;28;20027;-56
2023/12/06 04:59:39;;;;;;;11.38;8.93;;;5.70;99.90;;;;;;4971816;28;20023;-48
2023/12/06 05:02:05;;;;;;;15.32;9.88;;;5.70;99.90;;;;;;4954034;28;20023;-53
2023/12/06 05:04:30;;;;;;;11.45;10.25;;;5.80;99.90;;;;;;4971493;28;20027;-49
2023/12/06 05:06:56;;;;;;;14.18;10.40;;;5.70;99.90;;;;;;4971413;28;20057;-54
2023/12/06 05:09:21;;;;;;;13.55;10.88;;;5.80;99.90;;;;;;4971792;28;20030;-49
2023/12/06 05:11:47;;;;;;;11.02;9.30;;;5.80;99.90;;;;;;4971254;28;20490;-53
2023/12/06 05:14:13;;;;;;;12.68;10.30;;;5.80;99.90;;;;;;4971425;28;20073;-52
2023/12/06 05:16:39;;;;;;;11.90;9.63;;;5.80;99.90;;;;;;4971221;28;20085;-50
2023/12/06 05:19:06;;;;;;;13.07;9.60;;;5.80;99.90;;;;;;4971321;28;20070;-52
2023/12/06 05:21:31;;;;;;;12.38;9.32;;;5.90;99.90;;;;;;4970927;28;20041;-53
2023/12/06 05:23:57;;;;;;;12.20;9.90;;;5.80;99.90;;;;;;4971435;28;20109;-52
2023/12/06 05:26:25;;;;;;;13.50;9.68;;;5.70;99.90;;;;;;4971225;28;20038;-53
2023/12/06 05:28:51;;;;;;;12.75;10.73;;;5.70;99.90;;;;;;4971369;28;20026;-52
2023/12/06 05:31:16;;;;;;;14.02;10.45;;;5.60;99.90;;;;;;4971023;28;20039;-52
2023/12/06 05:33:42;;;;;;;13.77;9.98;;;5.60;99.90;;;;;;4971599;28;20430;-49
2023/12/06 05:36:08;;;;;;;12.65;10.15;;;5.60;99.90;;;;;;4971148;28;20060;-49
2023/12/06 05:38:33;;;;;;;10.77;9.43;;;5.60;99.90;;;;;;4971024;28;20034;-51
2023/12/06 05:41:00;;;;;;;11.98;9.52;;;5.60;99.90;;;;;;4970751;28;20039;-51
2023/12/06 05:43:25;;;;;;;13.95;9.55;;;5.60;99.90;;;;;;4971072;28;20106;-50
2023/12/06 05:45:51;;;;;;;13.77;10.07;;;5.50;99.90;;;;;;4969881;28;20122;-49
2023/12/06 05:48:16;;;;;;;13.07;9.95;;;5.50;99.90;;;;;;4971308;28;20100;-54
2023/12/06 05:50:42;;;;;;;10.45;9.10;;;5.40;99.90;;;;;;4970901;28;20397;-48
2023/12/06 05:53:07;;;;;;;12.40;8.70;;;5.30;99.90;;;;;;4953507;28;20069;-53
2023/12/06 05:55:33;;;;;;;12.95;8.38;;;5.50;99.90;;;;;;4970571;28;20027;-50
2023/12/06 05:57:58;;;;;;;10.18;7.82;;;5.30;99.90;;;;;;4970473;28;20148;-50
2023/12/06 06:00:24;;;;;;;10.02;7.53;;;5.30;99.90;;;;;;4970574;28;20027;-53
2023/12/06 06:02:51;;;;;;;9.98;7.50;;;5.30;99.90;;;;;;4970557;28;20154;-50
2023/12/06 06:05:18;;;;;;;10.07;8.05;;;5.20;99.90;;;;;;4971300;28;20077;-51
2023/12/06 06:07:44;;;;;;;9.73;6.95;;;5.30;99.90;;;;;;4971041;28;20061;-50
2023/12/06 06:10:10;;;;;;;9.82;7.10;;;5.20;99.90;;;;;;4970846;28;20062;-50
2023/12/06 06:12:35;;;;;;;9.50;6.10;;;5.30;99.90;;;;;;4953574;28;20479;-51
2023/12/06 06:15:01;;;;;;;7.25;5.55;;;5.20;99.90;;;;;;4970582;28;20065;-52
2023/12/06 06:17:27;;;;;;;7.47;6.00;;;5.20;99.90;;;;;;4970733;28;20038;-52
2023/12/06 06:19:52;;;;;;;6.90;5.35;;;5.20;99.90;;;;;;4970449;28;20405;-51
2023/12/06 06:22:18;;;;;;;6.80;5.70;;;5.30;99.90;;;;;;4952942;28;20022;-49
2023/12/06 06:24:44;;;;;;;7.05;5.30;;;5.20;99.90;;;;;;4970280;28;20023;-54
2023/12/06 06:27:10;;;;;;;7.68;6.00;;;5.20;99.90;;;;;;4970271;28;20039;-50
2023/12/06 06:29:37;;;;;;;6.05;5.45;;;5.20;99.90;;;;;;4953060;28;20035;-49
2023/12/06 06:32:03;;;;;;;8.98;7.13;;;5.30;99.90;;;;;;4953766;28;20031;-51
2023/12/06 06:34:29;;;;;;;9.85;6.40;;;5.20;99.90;;;;;;4970433;28;20035;-52
2023/12/06 06:36:54;;;;;;;6.45;5.78;;;5.20;99.90;;;;;;4970306;28;20053;-51
2023/12/06 06:39:20;;;;;;;8.70;6.22;;;5.20;99.90;;;;;;4970306;28;20102;-50
2023/12/06 06:41:46;;;;;;;9.70;6.55;;;5.20;99.90;;;;;;4970161;28;20101;-52
2023/12/06 06:44:12;;;;;;;8.18;7.05;;;5.10;99.90;;;;;;4970187;28;20068;-53
2023/12/06 06:46:37;;;;;;;8.25;6.85;;;5.10;99.90;;;;;;4952695;28;20429;-57
2023/12/06 06:49:03;;;;;;;10.48;6.85;;;5.20;99.90;;;;;;4970380;28;20062;-53
2023/12/06 06:51:35;;;;;;;9.15;6.57;;;5.20;99.90;;;;;;4952835;28;20023;-49
2023/12/06 06:54:06;;;;;;;8.25;6.47;;;5.30;99.90;;;;;;4952785;28;20072;-50
2023/12/06 06:56:32;;;;;;;9.88;6.85;;;5.20;99.90;;;;;;4970746;28;20027;-54
2023/12/06 06:58:58;;;;;;;9.32;6.55;;;5.20;99.90;;;;;;4972913;28;20037;-53
2023/12/06 07:01:23;;;;;;;7.47;6.68;;;5.30;99.90;;;;;;4973355;28;20039;-51
2023/12/06 07:03:49;;;;;;;8.82;6.57;;;5.20;99.90;;;;;;4973810;28;20023;-53
2023/12/06 07:06:15;;;;;;;10.02;7.70;;;5.20;99.90;;;;;;4956429;28;20023;-46
2023/12/06 07:08:41;;;;;;;9.70;7.20;;;5.10;99.90;;;;;;4973531;28;20079;-49
2023/12/06 07:11:07;;;;;;;8.85;7.20;;;5.10;99.90;;;;;;4955970;28;20026;-51
2023/12/06 07:13:34;;;;;;;7.00;5.68;;;5.10;99.90;;;;;;4956285;28;20076;-53
2023/12/06 07:16:00;;;;;;;6.68;5.85;;;5.00;99.90;;;;;;4973289;28;20034;-48
2023/12/06 07:18:26;;;;;;;8.48;6.68;;;4.90;99.90;;;;;;4973463;28;20490;-52
2023/12/06 07:20:51;;;;;;;9.25;7.00;;;4.80;99.90;;;;;;4973185;28;20049;-51
2023/12/06 07:23:18;;;;;;;9.45;7.03;;;4.80;99.90;;;;;;4973342;28;20034;-50
2023/12/06 07:25:45;;;;;;;9.27;7.55;;;4.70;99.90;;;;;;4973268;28;20026;-52
2023/12/06 07:28:10;;;;;;;12.82;7.88;;;4.80;99.90;;;;;;4973349;28;20076;-49
2023/12/06 07:30:36;;;;;;;10.43;7.25;;;4.70;99.90;;;;;;4973065;28;20031;-53
2023/12/06 07:33:02;;;;;;;11.63;8.43;;;4.70;99.90;;;;;;4972992;28;20098;-49
2023/12/06 07:35:27;;;;;;;10.45;8.35;;;4.60;99.90;;;;;;4955651;28;20023;-55
2023/12/06 07:37:53;;;;;;;9.55;7.80;;;4.60;99.90;;;;;;4972849;28;20023;-50
2023/12/06 07:40:18;;;;;;;15.35;8.45;;;4.60;99.90;;;;;;4973041;28;20031;-54
2023/12/06 07:42:44;;;;;;;11.98;8.02;;;4.60;99.90;;;;;;4972982;28;20090;-51
2023/12/06 07:45:12;;;;;;;11.60;8.77;;;4.60;99.90;;;;;;4955567;28;20452;-53
2023/12/06 07:47:39;;;;;;;9.30;8.23;;;4.60;99.90;;;;;;4955432;28;20034;-52
2023/12/06 07:50:06;;;;;;;11.82;8.07;;;4.70;99.90;;;;;;4972654;28;20027;-53
2023/12/06 07:52:33;;;;;;;10.65;7.55;;;4.70;99.90;;;;;;4955287;28;20031;-53
2023/12/06 07:55:05;;;;;;;11.45;7.90;;;4.60;99.90;;;;;;4972937;28;20027;-53
2023/12/06 07:57:31;;;;;;;10.77;7.85;;;4.60;99.90;;;;;;4972786;28;20027;-51
2023/12/06 07:59:58;;;;;;;11.05;7.70;;;4.60;99.90;;;;;;4972559;28;20386;-51
2023/12/06 08:02:24;;;;;;;10.88;7.18;;;4.60;99.90;;;;;;4972368;28;20031;-54
2023/12/06 08:04:50;;;;;;;12.30;8.32;;;4.60;99.90;;;;;;4955085;28;20034;-54
2023/12/06 08:07:15;;;;;;;11.82;7.60;;;4.60;99.90;;;;;;4972412;28;20027;-51
2023/12/06 08:09:41;;;;;;;9.27;6.75;;;4.60;99.90;;;;;;4971212;28;20081;-56
2023/12/06 08:12:07;;;;;;;13.60;9.10;;;4.70;99.90;;;;;;4972418;28;20383;-53
2023/12/06 08:14:34;;;;;;;12.30;8.25;;;4.70;99.90;;;;;;4955307;28;20041;-53
2023/12/06 08:16:59;;;;;;;9.82;7.68;;;4.70;99.90;;;;;;4972356;28;20454;-52
2023/12/06 08:19:24;;;;;;;11.05;7.75;;;4.70;99.90;;;;;;4972687;28;20110;-55
2023/12/06 08:21:50;;;;;;;10.60;7.68;;;4.70;99.90;;;;;;4972289;28;20407;-49
2023/12/06 08:24:16;;;;;;;8.88;7.22;;;4.80;99.90;;;;;;4972496;28;20038;-50
2023/12/06 08:26:42;;;;;;;8.75;6.93;;;4.80;99.90;;;;;;4972043;28;20085;-52
2023/12/06 08:29:08;;;;;;;9.35;7.25;;;5.00;99.90;;;;;;4972369;28;20189;-55
2023/12/06 08:31:36;;;;;;;10.05;7.43;;;5.00;99.90;;;;;;4954237;28;20464;-54
2023/12/06 08:34:02;;;;;;;7.20;6.50;;;5.10;99.90;;;;;;4948262;28;20043;-51
2023/12/06 08:36:28;;;;;;;8.77;7.00;;;5.00;99.90;;;;;;4968818;28;20035;-49
2023/12/06 08:38:54;;;;;;;9.02;6.75;;;4.90;99.90;;;;;;4953994;28;20031;-52
2023/12/06 08:41:20;;;;;;;8.43;6.35;;;4.90;99.90;;;;;;4971459;28;20055;-52
2023/12/06 08:43:46;;;;;;;17.08;7.38;;;4.90;99.90;;;;;;4971920;28;20080;-50
2023/12/06 08:46:11;;;;;;;10.02;6.50;;;4.90;99.90;;;;;;4970747;28;20537;-50
2023/12/06 08:48:37;;;;;;;11.13;6.90;;;5.00;99.90;;;;;;4971582;28;20035;-52
2023/12/06 08:51:03;;;;;;;7.88;6.70;;;4.90;99.90;;;;;;4971169;28;20516;-53
2023/12/06 08:53:29;;;;;;;8.90;7.53;;;4.90;99.90;;;;;;4971935;28;20058;-56
2023/12/06 08:55:54;;;;;;;9.10;7.78;;;4.80;99.90;;;;;;4953728;28;20514;-51
2023/12/06 08:58:20;;;;;;;8.82;7.28;;;4.90;99.90;;;;;;4971287;28;20113;-55
2023/12/06 09:00:46;;;;;;;10.15;7.47;;;4.90;99.90;;;;;;4971475;28;20501;-52
2023/12/06 09:03:12;;;;;;;10.85;8.05;;;4.90;99.90;;;;;;4954364;28;20022;-50
2023/12/06 09:05:38;;;;;;;12.80;9.07;;;4.90;99.90;;;;;;4971551;28;20490;-53
2023/12/06 09:08:04;;;;;;;12.10;8.93;;;4.90;99.90;;;;;;4971465;28;20496;-48
2023/12/06 09:10:30;;;;;;;10.80;8.52;;;4.90;99.90;;;;;;4970979;28;20045;-49
2023/12/06 09:12:56;;;;;;;13.15;8.25;;;5.00;99.90;;;;;;4971593;28;20027;-49
2023/12/06 09:15:21;;;;;;;11.10;8.73;;;5.00;99.90;;;;;;4954233;28;20031;-49
2023/12/06 09:17:47;;;;;;;11.98;8.15;;;5.00;99.90;;;;;;4970883;28;20058;-48
2023/12/06 09:20:13;;;;;;;10.77;8.18;;;5.10;99.90;;;;;;4971372;28;20498;-50
2023/12/06 09:22:39;;;;;;;9.80;8.10;;;5.10;99.90;;;;;;4953907;28;20113;-51
2023/12/06 09:25:05;;;;;;;11.02;8.35;;;5.00;99.90;;;;;;4971331;28;20027;-49
2023/12/06 09:27:32;;;;;;;15.40;8.88;;;5.10;99.90;;;;;;4971399;28;20031;-52
2023/12/06 09:29:57;;;;;;;12.32;8.43;;;5.00;99.90;;;;;;4971318;28;20384;-49
2023/12/06 09:32:23;;;;;;;11.88;8.55;;;5.10;99.90;;;;;;4953868;28;20056;-48
2023/12/06 09:34:49;;;;;;;10.55;8.27;;;5.10;99.90;;;;;;4971090;28;20103;-50
2023/12/06 09:37:15;;;;;;;11.88;8.57;;;5.00;99.90;;;;;;4953736;28;20061;-48
2023/12/06 09:39:41;;;;;;;12.57;8.30;;;5.00;99.90;;;;;;4971201;28;20037;-48
2023/12/06 09:42:07;;;;;;;9.68;8.25;;;5.10;99.90;;;;;;4970765;28;20023;-49
2023/12/06 09:44:36;;;;;;;10.13;8.00;;;5.10;99.90;;;;;;4953829;28;20118;-51
2023/12/06 09:47:02;;;;;;;10.88;8.57;;;5.00;99.90;;;;;;4970804;28;20110;-47
2023/12/06 09:49:27;;;;;;;12.45;8.65;;;5.10;99.90;;;;;;4970804;28;20493;-50
2023/12/06 09:52:28;;;;;;;9.85;8.15;;;5.10;99.90;;;;;;4953334;28;20058;-47
2023/12/06 09:54:55;;;;;;;12.57;9.13;;;5.20;99.90;;;;;;4973893;28;20065;-48
2023/12/06 09:57:21;;;;;;;12.02;9.23;;;5.10;99.90;;;;;;4970640;28;20037;-55
2023/12/06 09:59:46;;;;;;;14.30;9.23;;;5.20;99.90;;;;;;4970251;28;20034;-53
2023/12/06 10:02:12;;;;;;;12.98;9.00;;;5.20;99.90;;;;;;4970500;28;20023;-53
2023/12/06 10:04:38;;;;;;;14.02;9.77;;;5.20;99.90;;;;;;4953308;28;20027;-52
2023/12/06 10:07:04;;;;;;;12.93;9.35;;;5.20;99.90;;;;;;4953365;28;20037;-49
2023/12/06 10:09:29;;;;;;;12.77;9.18;;;5.20;99.90;;;;;;4970774;28;20494;-54
2023/12/06 10:12:11;;;;;;;10.98;8.75;;;5.20;99.90;;;;;;4952722;28;20038;-56
2023/12/06 10:14:37;;;;;;;13.05;9.40;;;5.20;99.90;;;;;;4944642;28;20027;-49
2023/12/06 10:17:03;;;;;;;13.77;9.88;;;5.20;99.90;;;;;;4970415;28;20069;-48
2023/12/06 10:19:31;;;;;;;11.52;9.40;;;5.20;99.90;;;;;;4953206;28;20110;-49
2023/12/06 10:21:58;;;;;;;9.70;8.70;;;5.20;99.90;;;;;;4952926;28;20027;-53
2023/12/06 10:24:24;;;;;;;11.57;8.73;;;5.20;99.90;;;;;;4952982;28;20030;-56
2023/12/06 10:27:03;;;;;;;12.07;9.23;;;5.20;99.90;;;;;;4970273;28;20031;-54
2023/12/06 10:29:32;;;;;;;11.93;9.45;;;5.20;99.90;;;;;;4970006;28;20051;-50
2023/12/06 10:31:58;;;;;;;12.68;9.00;;;5.20;99.90;;;;;;4968154;28;20110;-47
2023/12/06 10:34:27;;;;;;;14.48;10.60;;;5.20;99.90;;;;;;4969980;28;20034;-54
2023/12/06 10:36:55;;;;;;;12.30;9.25;;;5.20;99.90;;;;;;4984985;28;20026;-45
2023/12/06 10:39:22;;;;;;;13.35;10.60;;;5.20;99.90;;;;;;4977272;28;20114;-50
2023/12/06 10:41:49;;;;;;;18.38;12.23;;;5.20;99.90;;;;;;4952200;28;20023;-50
2023/12/06 10:44:15;;;;;;;18.48;13.18;;;5.20;99.90;;;;;;4969597;28;20037;-48
2023/12/06 10:46:43;;;;;;;17.10;12.15;;;5.20;99.90;;;;;;4969164;28;20122;-53
2023/12/06 10:49:10;;;;;;;15.80;11.73;;;5.30;99.90;;;;;;4957110;28;20023;-52
2023/12/06 10:51:37;;;;;;;13.25;10.02;;;5.40;99.90;;;;;;4965013;28;20398;-49
2023/12/06 10:54:04;;;;;;;16.77;10.80;;;5.40;99.90;;;;;;4969891;28;20023;-49
2023/12/06 10:56:32;;;;;;;14.98;11.05;;;5.40;99.90;;;;;;4970399;28;20026;-49
2023/12/06 10:59:03;;;;;;;14.25;10.35;;;5.30;99.90;;;;;;4969677;28;20105;-47
2023/12/06 11:01:31;;;;;;;12.20;9.80;;;5.30;99.90;;;;;;4969818;28;20023;-56
2023/12/06 11:03:58;;;;;;;13.55;9.70;;;5.30;99.90;;;;;;4945548;28;20023;-51
2023/12/06 11:06:47;;;;;;;12.25;9.60;;;5.40;99.90;;;;;;4969948;28;20110;-49
2023/12/06 11:09:38;;;;;;;10.10;8.63;;;5.40;99.90;;;;;;4969568;28;20050;-51
2023/12/06 11:12:22;;;;;;;13.30;8.20;;;5.40;99.90;;;;;;4968493;28;20035;-52
2023/12/06 11:15:09;;;;;;;10.90;7.93;;;5.40;99.90;;;;;;4956267;28;20129;-49
2023/12/06 11:17:51;;;;;;;9.88;7.80;;;5.40;99.90;;;;;;4951917;28;20023;-54
2023/12/06 11:20:17;;;;;;;11.40;8.20;;;5.30;99.90;;;;;;4969235;28;20039;-54
2023/12/06 11:22:43;;;;;;;10.93;8.80;;;5.30;99.90;;;;;;4969781;28;20027;-52
2023/12/06 11:25:09;;;;;;;12.55;8.48;;;5.40;99.90;;;;;;4969783;28;20045;-53
2023/12/06 11:27:39;;;;;;;12.82;9.02;;;5.40;99.90;;;;;;4951931;28;20042;-55
2023/12/06 11:30:16;;;;;;;9.27;7.57;;;5.40;99.90;;;;;;4969777;28;20026;-50
2023/12/06 11:32:43;;;;;;;9.98;8.13;;;5.50;99.90;;;;;;4965321;28;20094;-49
2023/12/06 11:35:09;;;;;;;9.65;8.05;;;5.50;99.90;;;;;;4968447;28;20023;-54
2023/12/06 11:37:35;;;;;;;11.52;8.95;;;5.50;99.90;;;;;;4948637;28;20398;-52
2023/12/06 11:40:18;;;;;;;9.38;8.25;;;5.40;99.90;;;;;;4966442;28;20035;-57
2023/12/06 11:43:01;;;;;;;10.10;8.60;;;5.40;99.90;;;;;;4969054;28;20102;-46
2023/12/06 11:45:27;;;;;;;10.63;8.18;;;5.50;99.90;;;;;;4972582;28;20034;-55
2023/12/06 11:47:53;;;;;;;11.05;8.30;;;5.50;99.90;;;;;;4972307;28;20088;-50
2023/12/06 11:50:21;;;;;;;10.93;8.65;;;5.60;99.90;;;;;;4972328;28;20402;-52
2023/12/06 11:52:49;;;;;;;10.48;8.48;;;5.60;99.90;;;;;;4972018;28;20087;-53
2023/12/06 11:55:17;;;;;;;53.97;33.22;;;5.60;99.90;;;;;;4972613;28;20019;-51
2023/12/06 11:58:02;;;;;;;92.40;50.10;;;5.50;99.90;;;;;;4972424;28;20037;-50
2023/12/06 12:00:30;;;;;;;65.68;36.42;;;5.50;99.90;;;;;;4972256;28;20027;-50
2023/12/06 12:02:58;;;;;;;15.13;10.55;;;5.60;99.90;;;;;;4972072;28;20049;-50
2023/12/06 12:05:24;;;;;;;10.82;8.85;;;5.50;99.90;;;;;;4955333;28;20059;-52
2023/12/06 12:07:50;;;;;;;9.93;8.90;;;5.50;99.90;;;;;;4972248;28;20114;-56
2023/12/06 12:10:16;;;;;;;11.93;9.20;;;5.60;99.90;;;;;;4971483;28;20039;-56
2023/12/06 12:12:42;;;;;;;12.52;10.52;;;5.60;99.90;;;;;;4971959;28;20088;-55
2023/12/06 12:15:07;;;;;;;12.80;8.82;;;5.60;99.90;;;;;;4972169;28;20099;-58
2023/12/06 12:17:35;;;;;;;12.50;9.23;;;5.70;99.90;;;;;;4972013;28;20110;-53
2023/12/06 12:20:02;;;;;;;12.95;10.05;;;5.60;99.90;;;;;;4971882;28;20031;-54
2023/12/06 12:22:27;;;;;;;10.32;8.68;;;5.60;99.90;;;;;;4971541;28;20035;-52
2023/12/06 12:24:52;;;;;;;11.85;9.13;;;5.70;99.90;;;;;;4962331;28;20077;-53
2023/12/06 12:27:20;;;;;;;14.10;8.85;;;5.70;99.90;;;;;;4971984;28;20057;-50
2023/12/06 12:29:46;;;;;;;12.25;9.75;;;5.70;99.90;;;;;;4971785;28;20027;-52
2023/12/06 12:32:12;;;;;;;12.52;9.32;;;5.70;99.90;;;;;;4993223;22;20019;-44
2023/12/06 12:34:38;;;;;;;11.05;8.77;;;5.70;99.90;;;;;;4968261;28;20035;-45
2023/12/06 12:37:04;;;;;;;12.15;9.68;;;5.70;99.90;;;;;;4952607;28;20027;-42
2023/12/06 12:39:30;;;;;;;11.82;8.98;;;5.70;99.90;;;;;;4963099;28;20023;-45
2023/12/06 12:41:56;;;;;;;10.98;9.43;;;5.70;99.90;;;;;;4962303;28;20023;-50
2023/12/06 12:44:22;;;;;;;12.55;9.70;;;5.70;99.90;;;;;;4934961;29;20035;-45
2023/12/06 12:46:49;;;;;;;11.93;9.25;;;5.70;99.90;;;;;;4943497;29;20030;-43